createdAt,value
2022-10-07T00:01:02.493Z,87.70
2022-10-07T00:03:32.107Z,88.00
2022-10-07T00:06:07.245Z,87.60
2022-10-07T00:08:38.154Z,87.80
2022-10-07T00:11:13.445Z,87.90
2022-10-07T00:13:41.237Z,87.40
2022-10-07T00:16:10.226Z,88.20
2022-10-07T00:18:37.912Z,88.10
2022-10-07T00:21:10.344Z,87.90
2022-10-07T00:23:37.675Z,88.20
2022-10-07T00:26:06.625Z,88.20
2022-10-07T00:28:34.114Z,88.00
2022-10-07T00:31:05.787Z,88.50
2022-10-07T00:33:35.909Z,88.60
2022-10-07T00:36:10.200Z,88.80
2022-10-07T00:38:37.705Z,88.50
2022-10-07T00:41:05.308Z,88.50
2022-10-07T00:43:32.642Z,88.80
2022-10-07T00:46:13.999Z,88.60
2022-10-07T00:48:41.126Z,88.80
2022-10-07T00:51:08.993Z,89.00
2022-10-07T00:53:37.217Z,88.70
2022-10-07T00:56:06.968Z,88.70
2022-10-07T00:58:36.381Z,89.30
2022-10-07T01:01:03.739Z,89.10
2022-10-07T01:03:31.087Z,88.90
2022-10-07T01:05:58.183Z,88.80
2022-10-07T01:08:25.844Z,88.70
2022-10-07T01:11:31.673Z,89.20
2022-10-07T01:14:28.205Z,88.90
2022-10-07T01:17:31.221Z,89.30
2022-10-07T01:20:13.331Z,89.50
2022-10-07T01:22:55.563Z,90.00
2022-10-07T01:25:44.136Z,89.40
2022-10-07T01:28:19.878Z,89.30
2022-10-07T01:30:52.925Z,89.60
2022-10-07T01:33:22.018Z,89.20
2022-10-07T01:35:50.014Z,89.30
2022-10-07T01:38:19.201Z,89.40
2022-10-07T01:40:52.663Z,89.30
2022-10-07T01:43:20.864Z,89.30
2022-10-07T01:45:49.242Z,88.90
2022-10-07T01:48:17.314Z,89.10
2022-10-07T01:50:45.809Z,89.00
2022-10-07T01:53:17.863Z,88.80
2022-10-07T01:56:19.111Z,88.50
2022-10-07T01:58:49.897Z,88.60
2022-10-07T02:01:31.626Z,88.40
2022-10-07T02:04:21.872Z,88.80
2022-10-07T02:06:53.087Z,88.40
2022-10-07T02:09:32.487Z,88.20
2022-10-07T02:12:24.369Z,88.50
2022-10-07T02:15:01.321Z,88.00
2022-10-07T02:17:28.669Z,88.30
2022-10-07T02:19:56.736Z,87.90
2022-10-07T02:22:26.096Z,87.90
2022-10-07T02:24:55.632Z,88.60
2022-10-07T02:27:25.362Z,88.30
2022-10-07T02:30:02.052Z,88.50
2022-10-07T02:32:33.221Z,88.90
2022-10-07T02:35:17.323Z,88.90
2022-10-07T02:37:44.665Z,88.50
2022-10-07T02:40:12.671Z,89.10
2022-10-07T02:43:03.444Z,88.70
2022-10-07T02:45:46.484Z,89.00
2022-10-07T02:48:21.609Z,89.10
2022-10-07T02:50:51.937Z,89.30
2022-10-07T02:53:19.810Z,88.90
2022-10-07T02:55:47.074Z,89.20
2022-10-07T02:58:15.020Z,89.00
2022-10-07T03:00:44.993Z,88.80
2022-10-07T03:03:12.464Z,89.00
2022-10-07T03:05:49.351Z,89.10
2022-10-07T03:08:17.664Z,89.50
2022-10-07T03:10:45.805Z,89.30
2022-10-07T03:13:15.894Z,89.50
2022-10-07T03:15:48.854Z,89.40
2022-10-07T03:18:27.443Z,89.20
2022-10-07T03:21:16.518Z,89.30
2022-10-07T03:23:44.547Z,89.00
2022-10-07T03:26:12.598Z,89.30
2022-10-07T03:28:40.143Z,88.70
2022-10-07T03:31:08.768Z,88.70
2022-10-07T03:33:38.444Z,88.80
2022-10-07T03:36:08.651Z,89.00
2022-10-07T03:38:37.238Z,88.90
2022-10-07T03:41:07.506Z,89.20
2022-10-07T03:43:34.883Z,89.70
2022-10-07T03:46:05.116Z,89.50
2022-10-07T03:48:34.765Z,89.10
2022-10-07T03:51:03.052Z,89.30
2022-10-07T03:53:41.652Z,89.10
2022-10-07T03:56:10.456Z,89.20
2022-10-07T03:58:39.492Z,89.60
2022-10-07T04:01:11.338Z,89.30
2022-10-07T04:03:44.381Z,89.30
2022-10-07T04:06:11.559Z,88.90
2022-10-07T04:08:40.909Z,88.60
2022-10-07T04:11:09.436Z,88.10
2022-10-07T04:13:40.735Z,87.80
2022-10-07T04:16:10.149Z,87.50
2022-10-07T04:18:38.063Z,87.40
2022-10-07T04:21:06.240Z,87.10
2022-10-07T04:23:36.073Z,86.80
2022-10-07T04:26:07.888Z,86.60
2022-10-07T04:28:35.147Z,86.50
2022-10-07T04:31:08.989Z,86.20
2022-10-07T04:33:40.597Z,86.10
2022-10-07T04:36:09.522Z,86.00
2022-10-07T04:38:50.832Z,85.70
2022-10-07T04:41:22.478Z,85.60
2022-10-07T04:43:56.824Z,85.60
2022-10-07T04:46:25.358Z,85.40
2022-10-07T04:48:59.917Z,85.30
2022-10-07T04:51:32.221Z,85.40
2022-10-07T04:54:01.668Z,85.30
2022-10-07T04:56:35.082Z,85.30
2022-10-07T04:59:05.535Z,85.20
2022-10-07T05:01:32.845Z,85.00
2022-10-07T05:04:00.796Z,84.70
2022-10-07T05:06:28.581Z,84.70
2022-10-07T05:08:56.827Z,84.70
2022-10-07T05:11:26.115Z,84.60
2022-10-07T05:14:08.530Z,84.30
2022-10-07T05:16:37.213Z,84.20
2022-10-07T05:19:05.583Z,84.50
2022-10-07T05:21:33.602Z,85.00
2022-10-07T05:24:02.304Z,85.70
2022-10-07T05:26:34.759Z,85.70
2022-10-07T05:29:03.877Z,86.00
2022-10-07T05:31:37.906Z,86.60
2022-10-07T05:34:06.691Z,86.70
2022-10-07T05:36:34.573Z,87.70
2022-10-07T05:39:03.610Z,87.20
2022-10-07T05:41:45.650Z,86.70
2022-10-07T05:44:15.161Z,86.50
2022-10-07T05:46:43.348Z,86.00
2022-10-07T05:49:12.516Z,86.00
2022-10-07T05:51:40.734Z,86.10
2022-10-07T05:54:08.785Z,86.50
2022-10-07T05:56:40.439Z,86.20
2022-10-07T05:59:08.352Z,85.90
2022-10-07T06:01:37.783Z,85.40
2022-10-07T06:04:11.612Z,85.00
2022-10-07T06:06:41.790Z,84.80
2022-10-07T06:09:30.063Z,84.10
2022-10-07T06:12:18.270Z,84.00
2022-10-07T06:14:47.011Z,83.70
2022-10-07T06:17:14.306Z,83.10
2022-10-07T06:19:43.300Z,83.70
2022-10-07T06:22:11.353Z,84.20
2022-10-07T06:24:40.180Z,84.10
2022-10-07T06:27:07.998Z,84.00
2022-10-07T06:29:36.334Z,84.10
2022-10-07T06:32:03.497Z,84.00
2022-10-07T06:34:32.042Z,83.50
2022-10-07T06:37:01.931Z,83.30
2022-10-07T06:39:31.897Z,83.20
2022-10-07T06:42:01.460Z,83.20
2022-10-07T06:44:57.001Z,82.50
2022-10-07T06:47:24.789Z,82.30
2022-10-07T06:49:52.050Z,82.70
2022-10-07T06:52:19.263Z,83.20
2022-10-07T06:54:47.992Z,85.00
2022-10-07T06:57:43.728Z,84.80
2022-10-07T07:00:03.196Z,85.40
2022-10-07T07:02:41.320Z,86.00
2022-10-07T07:05:44.441Z,85.90
2022-10-07T07:08:17.398Z,85.60
2022-10-07T07:10:45.232Z,84.10
2022-10-07T07:13:13.614Z,82.50
2022-10-07T07:15:40.888Z,81.70
2022-10-07T07:18:10.270Z,81.20
2022-10-07T07:20:38.612Z,79.30
2022-10-07T07:23:07.534Z,80.20
2022-10-07T07:25:39.310Z,79.90
2022-10-07T07:28:07.648Z,80.80
2022-10-07T07:30:35.085Z,80.90
2022-10-07T07:33:04.382Z,81.00
2022-10-07T07:35:33.210Z,81.30
2022-10-07T07:38:03.925Z,81.90
2022-10-07T07:40:31.871Z,81.80
2022-10-07T07:42:59.897Z,82.00
2022-10-07T07:45:27.496Z,81.90
2022-10-07T07:47:57.817Z,82.30
2022-10-07T07:50:29.818Z,82.20
2022-10-07T07:53:00.849Z,82.50
2022-10-07T07:55:28.149Z,82.50
2022-10-07T07:57:55.492Z,82.40
2022-10-07T08:00:23.000Z,82.50
2022-10-07T08:03:00.451Z,82.20
2022-10-07T08:05:28.154Z,81.20
2022-10-07T08:07:58.269Z,81.00
2022-10-07T08:10:26.643Z,80.70
2022-10-07T08:12:56.027Z,80.30
2022-10-07T08:15:23.708Z,80.70
2022-10-07T08:17:50.823Z,80.20
2022-10-07T08:20:18.675Z,80.10
2022-10-07T08:22:46.150Z,79.50
2022-10-07T08:25:16.449Z,79.40
2022-10-07T08:27:44.693Z,79.30
2022-10-07T08:30:13.222Z,79.00
2022-10-07T08:32:41.351Z,78.30
2022-10-07T08:35:09.002Z,78.30
2022-10-07T08:37:36.050Z,77.80
2022-10-07T08:40:03.405Z,77.40
2022-10-07T08:42:40.840Z,77.10
2022-10-07T08:45:10.726Z,76.30
2022-10-07T08:47:44.276Z,76.20
2022-10-07T08:50:19.471Z,75.80
2022-10-07T08:52:53.305Z,76.60
2022-10-07T08:55:32.138Z,75.90
2022-10-07T08:58:34.822Z,75.40
2022-10-07T09:01:26.618Z,75.00
2022-10-07T09:04:20.316Z,75.00
2022-10-07T09:06:56.275Z,74.60
2022-10-07T09:09:25.864Z,74.10
2022-10-07T09:11:53.317Z,74.30
2022-10-07T09:14:29.833Z,74.20
2022-10-07T09:17:21.935Z,73.90
2022-10-07T09:19:56.092Z,73.90
2022-10-07T09:22:40.484Z,74.10
2022-10-07T09:25:21.597Z,73.30
2022-10-07T09:27:50.553Z,72.60
2022-10-07T09:30:18.443Z,73.00
2022-10-07T09:32:47.941Z,72.40
2022-10-07T09:35:17.419Z,72.50
2022-10-07T09:38:08.446Z,72.80
2022-10-07T09:41:29.081Z,71.80
2022-10-07T09:44:28.363Z,71.30
2022-10-07T09:47:02.303Z,71.50
2022-10-07T09:49:30.090Z,70.90
2022-10-07T09:52:04.957Z,71.10
2022-10-07T09:54:41.413Z,70.90
2022-10-07T09:57:33.943Z,71.10
2022-10-07T10:00:13.076Z,70.90
2022-10-07T10:02:41.275Z,71.30
2022-10-07T10:05:27.183Z,70.80
2022-10-07T10:08:06.559Z,69.90
2022-10-07T10:10:36.800Z,69.00
2022-10-07T10:13:08.122Z,67.20
2022-10-07T10:15:44.040Z,67.00
2022-10-07T10:18:49.959Z,64.80
2022-10-07T10:21:32.321Z,65.10
2022-10-07T10:24:08.613Z,64.30
2022-10-07T10:27:10.557Z,63.10
2022-10-07T10:30:11.123Z,62.30
2022-10-07T10:32:51.790Z,61.70
2022-10-07T10:35:27.639Z,60.20
2022-10-07T10:38:10.888Z,57.40
2022-10-07T10:41:19.858Z,56.40
2022-10-07T10:44:20.451Z,55.00
2022-10-07T10:47:04.255Z,56.90
2022-10-07T10:49:57.637Z,56.90
2022-10-07T10:53:01.332Z,54.20
2022-10-07T10:55:51.361Z,53.60
2022-10-07T10:58:53.528Z,54.30
2022-10-07T11:01:43.936Z,51.50
2022-10-07T11:04:36.090Z,50.00
2022-10-07T11:07:15.467Z,50.10
2022-10-07T11:10:15.297Z,52.00
2022-10-07T11:13:08.547Z,53.90
2022-10-07T11:15:57.815Z,51.90
2022-10-07T11:18:51.156Z,51.50
2022-10-07T11:21:31.596Z,49.80
2022-10-07T11:24:28.245Z,50.50
2022-10-07T11:27:22.066Z,50.20
2022-10-07T11:30:26.931Z,49.20
2022-10-07T11:33:29.968Z,49.50
2022-10-07T11:36:08.162Z,45.20
2022-10-07T11:38:43.167Z,44.30
2022-10-07T11:52:29.938Z,44.30
2022-10-07T11:58:33.721Z,39.70
2022-10-07T12:01:27.008Z,38.30
2022-10-07T12:04:20.497Z,38.80
2022-10-07T12:07:40.721Z,39.50
2022-10-07T12:10:23.147Z,38.60
2022-10-07T12:13:33.388Z,37.60
2022-10-07T12:19:43.190Z,39.20
2022-10-07T12:22:29.009Z,37.80
2022-10-07T12:25:33.669Z,39.10
2022-10-07T12:28:52.242Z,38.10
2022-10-07T12:31:38.739Z,37.90
2022-10-07T12:34:36.994Z,37.80
2022-10-07T12:37:43.957Z,38.90
2022-10-07T12:40:35.296Z,36.80
2022-10-07T12:43:40.257Z,37.60
2022-10-07T12:46:21.748Z,36.70
2022-10-07T12:50:39.231Z,37.30
2022-10-07T12:59:56.823Z,37.80
2022-10-07T13:02:58.587Z,37.80
2022-10-07T13:06:13.267Z,37.60
2022-10-07T13:08:50.040Z,38.60
2022-10-07T13:11:36.271Z,39.40
2022-10-07T13:14:38.479Z,38.20
2022-10-07T13:17:24.714Z,37.10
2022-10-07T13:20:01.827Z,36.90
2022-10-07T13:22:31.237Z,36.00
2022-10-07T13:24:59.016Z,37.30
2022-10-07T13:27:33.170Z,34.10
2022-10-07T13:30:04.420Z,34.30
2022-10-07T13:32:34.605Z,33.90
2022-10-07T13:35:36.229Z,35.40
2022-10-07T13:38:06.074Z,34.40
2022-10-07T13:40:36.317Z,35.20
2022-10-07T13:43:07.252Z,36.20
2022-10-07T13:45:43.262Z,35.80
2022-10-07T13:48:35.890Z,36.30
2022-10-07T13:51:03.188Z,38.20
2022-10-07T13:53:32.288Z,37.80
2022-10-07T13:56:16.386Z,38.10
2022-10-07T13:58:44.027Z,37.50
2022-10-07T14:01:12.248Z,37.70
2022-10-07T14:04:16.982Z,38.60
2022-10-07T14:06:54.311Z,38.30
2022-10-07T14:09:44.024Z,37.60
2022-10-07T14:12:45.023Z,38.00
2022-10-07T14:15:14.392Z,38.00
2022-10-07T14:18:11.402Z,39.90
2022-10-07T14:20:51.953Z,39.10
2022-10-07T14:23:34.840Z,39.20
2022-10-07T14:26:11.727Z,37.50
2022-10-07T14:28:42.409Z,37.90
2022-10-07T14:31:46.021Z,39.10
2022-10-07T14:35:02.225Z,37.90
2022-10-07T14:37:50.421Z,37.90
2022-10-07T14:40:24.779Z,38.90
2022-10-07T14:43:03.597Z,37.20
2022-10-07T14:45:39.945Z,37.70
2022-10-07T14:48:16.956Z,37.50
2022-10-07T14:50:55.289Z,37.80
2022-10-07T14:53:24.464Z,37.70
2022-10-07T14:55:59.879Z,39.00
2022-10-07T14:58:37.504Z,38.30
2022-10-07T15:01:09.048Z,38.70
2022-10-07T15:03:49.500Z,38.90
2022-10-07T15:06:21.343Z,39.30
2022-10-07T15:09:25.168Z,39.80
2022-10-07T15:12:01.398Z,40.60
2022-10-07T15:14:39.496Z,42.50
2022-10-07T15:17:07.598Z,41.70
2022-10-07T15:19:39.901Z,41.80
2022-10-07T15:22:35.385Z,41.80
2022-10-07T15:25:14.428Z,43.00
2022-10-07T15:28:02.034Z,42.90
2022-10-07T15:30:46.598Z,43.20
2022-10-07T15:33:15.156Z,43.50
2022-10-07T15:35:45.079Z,44.40
2022-10-07T15:38:12.307Z,44.50
2022-10-07T15:40:59.816Z,45.30
2022-10-07T15:43:27.095Z,45.40
2022-10-07T15:45:56.964Z,45.70
2022-10-07T15:48:24.667Z,45.20
2022-10-07T15:50:53.816Z,45.20
2022-10-07T15:53:22.745Z,45.30
2022-10-07T15:55:54.732Z,45.40
2022-10-07T15:58:22.984Z,45.00
2022-10-07T16:00:57.276Z,45.30
2022-10-07T16:03:24.421Z,46.10
2022-10-07T16:05:59.953Z,47.20
2022-10-07T16:08:27.460Z,47.70
2022-10-07T16:10:54.637Z,48.20
2022-10-07T16:13:23.338Z,48.70
2022-10-07T16:16:03.064Z,49.10
2022-10-07T16:18:36.635Z,49.70
2022-10-07T16:21:23.561Z,50.10
2022-10-07T16:23:57.177Z,50.80
2022-10-07T16:26:30.279Z,51.20
2022-10-07T16:29:17.365Z,52.00
2022-10-07T16:31:44.863Z,52.30
2022-10-07T16:34:13.307Z,52.60
2022-10-07T16:36:45.365Z,53.10
2022-10-07T16:39:13.527Z,53.40
2022-10-07T16:41:44.331Z,54.20
2022-10-07T16:44:11.561Z,54.20
2022-10-07T16:46:39.039Z,54.50
2022-10-07T16:49:07.936Z,54.10
2022-10-07T16:51:36.414Z,54.30
2022-10-07T16:54:13.032Z,54.40
2022-10-07T16:56:47.124Z,55.00
2022-10-07T16:59:21.188Z,55.40
2022-10-07T17:01:50.380Z,56.20
2022-10-07T17:04:18.128Z,56.10
2022-10-07T17:06:46.480Z,56.00
2022-10-07T17:09:16.049Z,56.40
2022-10-07T17:11:43.520Z,56.00
2022-10-07T17:14:11.466Z,56.50
2022-10-07T17:16:40.039Z,56.30
2022-10-07T17:19:07.731Z,56.30
2022-10-07T17:21:36.864Z,56.60
2022-10-07T17:24:04.706Z,56.80
2022-10-07T17:26:32.159Z,56.90
2022-10-07T17:29:12.213Z,56.50
2022-10-07T17:31:40.648Z,56.80
2022-10-07T17:34:07.779Z,56.60
2022-10-07T17:36:35.593Z,57.00
2022-10-07T17:39:14.601Z,56.90
2022-10-07T17:41:41.875Z,56.70
2022-10-07T17:44:16.409Z,56.50
2022-10-07T17:46:43.767Z,56.50
2022-10-07T17:49:13.548Z,56.60
2022-10-07T17:51:42.791Z,56.90
2022-10-07T17:54:11.241Z,56.80
2022-10-07T17:56:38.276Z,56.80
2022-10-07T17:59:05.712Z,56.90
2022-10-07T18:01:34.191Z,57.10
2022-10-07T18:04:09.871Z,57.20
2022-10-07T18:06:37.865Z,57.30
2022-10-07T18:09:06.484Z,57.40
2022-10-07T18:11:52.774Z,59.40
2022-10-07T18:14:38.782Z,65.40
2022-10-07T18:17:06.477Z,73.20
2022-10-07T18:19:33.701Z,79.70
2022-10-07T18:22:03.079Z,82.10
2022-10-07T18:24:33.142Z,83.60
2022-10-07T18:27:03.518Z,85.40
2022-10-07T18:29:34.020Z,85.90
2022-10-07T18:32:04.752Z,88.00
2022-10-07T18:34:32.660Z,87.10
2022-10-07T18:37:00.888Z,84.70
2022-10-07T18:39:29.866Z,86.30
2022-10-07T18:41:57.498Z,85.40
2022-10-07T18:44:24.648Z,85.80
2022-10-07T18:46:52.160Z,86.80
2022-10-07T18:49:19.248Z,87.10
2022-10-07T18:51:47.377Z,87.60
2022-10-07T18:54:14.811Z,87.50
2022-10-07T18:56:41.914Z,88.30
2022-10-07T18:59:09.908Z,88.30
2022-10-07T19:01:37.997Z,89.20
2022-10-07T19:04:06.030Z,88.20
2022-10-07T19:06:35.432Z,88.00
2022-10-07T19:09:05.192Z,87.90
2022-10-07T19:11:32.687Z,88.80
2022-10-07T19:14:00.002Z,88.50
2022-10-07T19:16:37.912Z,87.90
2022-10-07T19:19:13.810Z,88.30
2022-10-07T19:21:41.154Z,88.30
2022-10-07T19:24:08.227Z,88.40
2022-10-07T19:26:41.148Z,87.90
2022-10-07T19:29:12.305Z,88.50
2022-10-07T19:31:41.488Z,88.40
2022-10-07T19:34:13.040Z,87.80
2022-10-07T19:36:42.513Z,87.30
2022-10-07T19:39:10.899Z,87.60
2022-10-07T19:41:38.071Z,88.60
2022-10-07T19:44:05.858Z,88.00
2022-10-07T19:46:33.693Z,88.20
2022-10-07T19:49:01.914Z,87.90
2022-10-07T19:51:33.742Z,88.60
2022-10-07T19:54:02.308Z,88.60
2022-10-07T19:56:33.894Z,88.30
2022-10-07T19:59:06.547Z,88.80
2022-10-07T20:01:36.008Z,89.00
2022-10-07T20:04:07.968Z,89.10
2022-10-07T20:06:37.513Z,89.00
2022-10-07T20:09:09.672Z,89.40
2022-10-07T20:11:36.859Z,89.30
2022-10-07T20:14:05.962Z,89.50
2022-10-07T20:16:33.875Z,89.60
2022-10-07T20:19:05.870Z,90.00
2022-10-07T20:21:35.771Z,89.90
2022-10-07T20:24:03.026Z,90.10
2022-10-07T20:26:34.148Z,90.30
2022-10-07T20:29:05.425Z,89.70
2022-10-07T20:31:35.100Z,89.60
2022-10-07T20:34:02.842Z,90.30
2022-10-07T20:36:34.944Z,90.20
2022-10-07T20:39:24.863Z,90.30
2022-10-07T20:42:11.354Z,90.60
2022-10-07T20:44:38.985Z,90.40
2022-10-07T20:47:07.355Z,90.40
2022-10-07T20:49:35.308Z,90.70
2022-10-07T20:52:04.153Z,90.80
2022-10-07T20:54:32.803Z,91.10
2022-10-07T20:57:00.098Z,90.90
2022-10-07T20:59:28.225Z,90.60
2022-10-07T21:01:55.628Z,91.00
2022-10-07T21:04:28.445Z,90.80
2022-10-07T21:06:56.824Z,90.50
2022-10-07T21:09:24.503Z,90.20
2022-10-07T21:11:52.587Z,89.80
2022-10-07T21:14:19.849Z,89.40
2022-10-07T21:16:48.312Z,89.20
2022-10-07T21:19:15.691Z,89.60
2022-10-07T21:21:42.809Z,89.90
2022-10-07T21:24:10.011Z,89.90
2022-10-07T21:26:37.413Z,90.30
2022-10-07T21:29:05.405Z,90.20
2022-10-07T21:31:32.747Z,90.30
2022-10-07T21:34:01.844Z,90.20
2022-10-07T21:36:28.941Z,90.50
2022-10-07T21:38:58.821Z,90.80
2022-10-07T21:41:27.541Z,91.00
2022-10-07T21:43:55.689Z,90.90
2022-10-07T21:46:23.745Z,90.90
2022-10-07T21:48:52.308Z,91.10
2022-10-07T21:51:19.342Z,91.20
2022-10-07T21:53:52.959Z,91.30
2022-10-07T21:56:20.359Z,91.40
2022-10-07T21:58:49.502Z,91.60
2022-10-07T22:01:17.425Z,91.60
2022-10-07T22:03:44.785Z,91.70
2022-10-07T22:06:13.674Z,91.50
2022-10-07T22:08:41.135Z,91.70
2022-10-07T22:11:18.729Z,91.70
2022-10-07T22:13:51.854Z,91.70
2022-10-07T22:16:19.269Z,91.80
2022-10-07T22:18:49.544Z,92.00
2022-10-07T22:21:21.355Z,92.00
2022-10-07T22:23:52.578Z,92.20
2022-10-07T22:26:21.164Z,92.00
2022-10-07T22:28:48.386Z,92.10
2022-10-07T22:31:15.746Z,92.00
2022-10-07T22:33:43.234Z,91.90
2022-10-07T22:36:12.179Z,92.10
2022-10-07T22:38:42.453Z,92.20
2022-10-07T22:41:11.702Z,92.00
2022-10-07T22:43:39.665Z,92.20
2022-10-07T22:46:07.385Z,92.40
2022-10-07T22:48:34.817Z,92.40
2022-10-07T22:51:09.049Z,92.40
2022-10-07T22:53:36.643Z,92.50
2022-10-07T22:56:11.088Z,92.60
2022-10-07T22:58:39.271Z,92.70
2022-10-07T23:01:07.763Z,92.50
2022-10-07T23:03:38.733Z,92.50
2022-10-07T23:06:09.187Z,92.60
2022-10-07T23:08:37.024Z,92.60
2022-10-07T23:11:04.276Z,92.60
2022-10-07T23:13:36.086Z,92.70
2022-10-07T23:16:07.350Z,92.70
2022-10-07T23:18:34.448Z,92.80
2022-10-07T23:21:06.847Z,92.60
2022-10-07T23:23:37.586Z,92.70
2022-10-07T23:26:07.879Z,92.80
2022-10-07T23:28:35.827Z,92.80
2022-10-07T23:31:08.066Z,92.90
2022-10-07T23:33:35.693Z,93.00
2022-10-07T23:36:05.461Z,92.90
2022-10-07T23:38:33.628Z,92.80
2022-10-07T23:41:04.188Z,92.70
2022-10-07T23:43:34.802Z,92.80
2022-10-07T23:46:02.015Z,93.20
2022-10-07T23:48:33.660Z,93.00
2022-10-07T23:51:06.915Z,93.10
2022-10-07T23:53:34.716Z,93.10
2022-10-07T23:56:01.865Z,93.00
2022-10-07T23:58:29.961Z,92.90
